Time;durP1;ratioP1;P1;durP2;ratioP2;P2;SDS_P1;SDS_P2;PMS_P1;PMS_P2;Temp;Humidity;BMP_temperature;BMP_pressure;BME280_temperature;BME280_humidity;BME280_pressure;Samples;Min_cycle;Max_cycle;Signal;HPM_P1;HPM_P2
2023/12/24 00:02:23;;;;;;;1.70;0.45;;;;;;;-2.97;75.94;99197.34;5038674;28;20091;-73
2023/12/24 00:04:50;;;;;;;0.60;0.20;;;;;;;-2.97;76.44;99208.44;5041587;28;20080;-72
2023/12/24 00:07:17;;;;;;;1.20;0.32;;;;;;;-2.99;75.99;99199.03;5041824;28;20538;-73
2023/12/24 00:09:44;;;;;;;1.77;0.40;;;;;;;-2.98;76.41;99195.66;5042218;28;20575;-73
2023/12/24 00:12:11;;;;;;;1.02;0.40;;;;;;;-2.98;76.14;99206.72;5042145;28;20072;-73
2023/12/24 00:14:38;;;;;;;0.60;0.30;;;;;;;-2.98;76.11;99195.66;5043684;28;20135;-73
2023/12/24 00:17:05;;;;;;;1.58;0.40;;;;;;;-3.03;75.82;99196.44;5041091;28;20075;-73
2023/12/24 00:19:34;;;;;;;1.38;0.82;;;;;;;-3.04;75.81;99197.31;5038301;28;20056;-76
2023/12/24 00:22:01;;;;;;;1.20;0.63;;;;;;;-3.00;75.69;99207.56;5045412;28;20091;-76
2023/12/24 00:24:28;;;;;;;1.15;0.20;;;;;;;-3.00;75.92;99217.78;5040807;28;20507;-75
2023/12/24 00:26:54;;;;;;;0.70;0.30;;;;;;;-3.03;76.13;99214.34;5042438;28;20088;-75
2023/12/24 00:29:21;;;;;;;0.70;0.30;;;;;;;-3.04;75.60;99211.81;5041191;28;20073;-75
2023/12/24 00:31:48;;;;;;;0.68;0.20;;;;;;;-3.05;76.14;99210.97;5049693;28;20096;-78
2023/12/24 00:34:15;;;;;;;0.70;0.30;;;;;;;-3.03;75.85;99206.69;5044735;28;20076;-78
2023/12/24 00:36:44;;;;;;;0.93;0.40;;;;;;;-3.04;75.52;99211.81;5042381;28;20479;-77
2023/12/24 00:39:11;;;;;;;0.43;0.30;;;;;;;-3.05;76.15;99210.97;5048137;28;20128;-77
2023/12/24 00:41:39;;;;;;;0.57;0.30;;;;;;;-3.08;75.62;99200.72;5045523;28;20556;-78
2023/12/24 00:44:06;;;;;;;1.13;0.43;;;;;;;-3.06;75.81;99214.34;5055402;28;20072;-78
2023/12/24 00:46:33;;;;;;;0.63;0.20;;;;;;;-3.07;75.64;99214.34;5052725;28;20053;-78
2023/12/24 00:49:00;;;;;;;0.95;0.30;;;;;;;-3.06;75.81;99218.59;5045616;28;20132;-77
2023/12/24 00:51:27;;;;;;;0.85;0.40;;;;;;;-3.08;75.52;99215.19;5052002;28;20457;-78
2023/12/24 00:53:55;;;;;;;0.68;0.30;;;;;;;-3.08;75.65;99220.28;5049361;28;20636;-78
2023/12/24 00:56:22;;;;;;;0.82;0.40;;;;;;;-3.09;76.03;99222.00;5047210;28;20132;-77
2023/12/24 00:58:49;;;;;;;0.60;0.20;;;;;;;-3.10;75.18;99215.19;5047918;28;20041;-77
2023/12/24 01:01:16;;;;;;;0.93;0.40;;;;;;;-3.11;75.33;99220.28;5050844;28;20052;-77
2023/12/24 01:03:43;;;;;;;0.85;0.32;;;;;;;-3.10;75.90;99216.88;5049009;28;20072;-78
2023/12/24 01:06:10;;;;;;;0.50;0.20;;;;;;;-3.12;75.95;99216.84;5047832;28;20080;-77
2023/12/24 01:08:37;;;;;;;0.80;0.30;;;;;;;-3.12;75.99;99221.13;5047000;28;20080;-77
2023/12/24 01:11:06;;;;;;;0.50;0.30;;;;;;;-3.13;75.80;99217.72;5053918;28;20076;-77
2023/12/24 01:13:33;;;;;;;0.82;0.25;;;;;;;-3.14;75.70;99215.13;5050024;28;20483;-77
2023/12/24 01:16:00;;;;;;;0.65;0.30;;;;;;;-3.15;75.88;99219.41;5051219;28;20075;-77
2023/12/24 01:18:28;;;;;;;0.32;0.20;;;;;;;-3.14;75.49;99233.03;5052189;28;20632;-77
2023/12/24 01:20:56;;;;;;;0.40;0.20;;;;;;;-3.16;75.58;99233.03;5047627;28;20052;-77
2023/12/24 01:23:23;;;;;;;0.77;0.20;;;;;;;-3.21;75.81;99227.03;5048554;28;20041;-77
2023/12/24 01:25:50;;;;;;;0.50;0.20;;;;;;;-3.23;75.49;99221.03;5048835;28;20081;-77
2023/12/24 01:28:18;;;;;;;0.70;0.28;;;;;;;-3.22;75.98;99225.31;5046966;28;20506;-77
2023/12/24 01:30:45;;;;;;;0.90;0.30;;;;;;;-3.30;75.43;99214.19;5045770;28;20556;-75
2023/12/24 01:33:12;;;;;;;0.50;0.20;;;;;;;-3.26;75.62;99219.31;5045656;28;20080;-76
2023/12/24 01:35:41;;;;;;;0.65;0.15;;;;;;;-3.22;75.37;99227.88;5047742;28;20040;-76
2023/12/24 01:38:08;;;;;;;0.52;0.20;;;;;;;-3.21;75.16;99229.59;5043188;28;20049;-76
2023/12/24 01:40:35;;;;;;;0.60;0.20;;;;;;;-3.22;75.38;99222.78;5048331;28;20077;-77
2023/12/24 01:43:03;;;;;;;0.70;0.25;;;;;;;-3.22;75.19;99221.88;5051176;28;20941;-77
2023/12/24 01:45:31;;;;;;;0.50;0.30;;;;;;;-3.23;75.38;99223.59;5050359;28;20083;-78
2023/12/24 01:47:58;;;;;;;0.68;0.55;;;;;;;-3.23;75.10;99227.84;5041400;28;20076;-77
2023/12/24 01:50:25;;;;;;;1.63;0.20;;;;;;;-3.32;75.52;99203.06;5047576;28;20087;-77
2023/12/24 01:52:52;;;;;;;0.88;0.30;;;;;;;-3.24;75.66;99226.16;5045363;28;20132;-78
2023/12/24 01:55:21;;;;;;;0.68;0.30;;;;;;;-3.25;75.30;99217.59;5048273;28;20458;-77
2023/12/24 01:57:48;;;;;;;1.77;0.30;;;;;;;-3.26;75.04;99231.25;5048015;28;20060;-77
2023/12/24 02:00:16;;;;;;;0.90;0.25;;;;;;;-3.30;75.08;99222.69;5047813;28;20068;-77
2023/12/24 02:02:45;;;;;;;0.82;0.22;;;;;;;-3.28;74.91;99232.91;5049365;28;20048;-77
2023/12/24 02:05:12;;;;;;;0.88;0.30;;;;;;;-3.30;75.14;99230.38;5046143;28;20091;-77
2023/12/24 02:07:40;;;;;;;0.88;0.25;;;;;;;-3.31;75.26;99233.75;5050318;28;20558;-77
2023/12/24 02:10:09;;;;;;;1.00;0.30;;;;;;;-3.32;75.06;99224.38;5044154;28;20076;-77
2023/12/24 02:12:36;;;;;;;1.67;0.40;;;;;;;-3.30;75.24;99232.06;5043277;28;20038;-77
2023/12/24 02:15:04;;;;;;;0.75;0.40;;;;;;;-3.33;74.91;99225.22;5049660;28;20053;-77
2023/12/24 02:17:33;;;;;;;0.45;0.25;;;;;;;-3.32;75.26;99234.59;5046812;28;20099;-77
2023/12/24 02:20:02;;;;;;;3.00;0.38;;;;;;;-3.34;74.85;99223.50;5042851;28;20084;-77
2023/12/24 02:22:30;;;;;;;0.75;0.20;;;;;;;-3.34;75.09;99233.72;5050930;28;20045;-77
2023/12/24 02:24:57;;;;;;;0.80;0.30;;;;;;;-3.36;75.17;99235.44;5048747;28;20081;-77
2023/12/24 02:27:33;;;;;;;0.77;0.30;;;;;;;-3.37;75.12;99236.25;5050009;28;20076;-78
2023/12/24 02:30:06;;;;;;;0.88;0.20;;;;;;;-3.38;75.00;99246.50;5047057;28;20472;-77
2023/12/24 02:32:36;;;;;;;0.68;0.30;;;;;;;-3.40;75.22;99240.50;5050041;28;20103;-77
2023/12/24 02:35:04;;;;;;;0.63;0.30;;;;;;;-3.43;75.00;99237.91;5049762;28;20095;-77
2023/12/24 02:37:33;;;;;;;0.70;0.32;;;;;;;-3.42;74.63;99245.63;5044778;28;20088;-77
2023/12/24 02:40:00;;;;;;;0.70;0.28;;;;;;;-3.44;75.07;99252.41;5041018;28;20512;-74
2023/12/24 02:42:27;;;;;;;0.73;0.20;;;;;;;-3.47;75.27;99248.97;5042140;28;20152;-74
2023/12/24 02:44:54;;;;;;;0.57;0.57;;;;;;;-3.46;74.70;99263.47;5040354;28;20124;-75
2023/12/24 02:47:21;;;;;;;2.50;0.22;;;;;;;-3.47;74.86;99259.19;5044149;28;20076;-74
2023/12/24 02:49:48;;;;;;;0.50;0.30;;;;;;;-3.54;75.22;99248.88;5041789;28;20132;-74
2023/12/24 02:52:15;;;;;;;2.30;0.25;;;;;;;-3.50;74.53;99260.03;5043689;28;20077;-74
2023/12/24 02:54:44;;;;;;;0.88;0.30;;;;;;;-3.57;75.00;99246.31;5044437;28;20037;-74
2023/12/24 02:57:11;;;;;;;0.65;0.20;;;;;;;-3.54;75.33;99251.44;5042669;28;20071;-74
2023/12/24 02:59:38;;;;;;;0.60;0.20;;;;;;;-3.56;75.13;99250.59;5044450;28;20619;-74
2023/12/24 03:02:05;;;;;;;1.23;0.20;;;;;;;-3.58;75.07;99254.81;5042626;28;20072;-74
2023/12/24 03:04:32;;;;;;;0.28;0.20;;;;;;;-3.59;74.87;99260.78;5042930;28;20099;-74
2023/12/24 03:06:59;;;;;;;0.50;0.20;;;;;;;-3.60;74.85;99266.72;5040114;28;20080;-74
2023/12/24 03:09:26;;;;;;;1.92;0.17;;;;;;;-3.62;75.16;99268.44;5043225;28;20133;-74
2023/12/24 03:11:54;;;;;;;1.02;0.30;;;;;;;-3.64;74.88;99269.25;5037603;28;20076;-74
2023/12/24 03:14:21;;;;;;;0.40;0.20;;;;;;;-3.66;74.88;99270.94;5038198;28;20071;-73
2023/12/24 03:16:48;;;;;;;0.63;0.30;;;;;;;-3.71;74.89;99264.06;5042535;28;20124;-74
2023/12/24 03:19:15;;;;;;;1.52;0.25;;;;;;;-3.69;74.73;99266.63;5043469;28;20467;-74
2023/12/24 03:21:42;;;;;;;0.40;0.20;;;;;;;-3.70;74.41;99270.03;5043550;28;20080;-74
2023/12/24 03:24:09;;;;;;;0.73;0.20;;;;;;;-3.73;74.40;99268.31;5044353;28;20140;-75
2023/12/24 03:26:36;;;;;;;0.30;0.20;;;;;;;-3.73;74.75;99272.56;5044151;28;20133;-74
2023/12/24 03:29:05;;;;;;;0.88;0.30;;;;;;;-3.76;74.59;99268.28;5042423;28;20068;-74
2023/12/24 03:31:32;;;;;;;0.38;0.20;;;;;;;-3.79;75.07;99263.13;5041605;28;20037;-74
2023/12/24 03:33:59;;;;;;;0.50;0.20;;;;;;;-3.82;74.91;99265.63;5044139;28;20919;-74
2023/12/24 03:36:26;;;;;;;0.22;0.10;;;;;;;-3.82;74.76;99267.34;5038029;28;20125;-74
2023/12/24 03:38:53;;;;;;;1.40;0.20;;;;;;;-3.85;74.26;99274.97;5040234;28;20124;-76
2023/12/24 03:41:20;;;;;;;0.20;0.10;;;;;;;-3.86;74.61;99278.38;5041006;28;20083;-74
2023/12/24 03:43:47;;;;;;;0.52;0.20;;;;;;;-3.88;74.50;99274.94;5043168;28;20069;-74
2023/12/24 03:46:19;;;;;;;0.75;0.28;;;;;;;-3.88;75.13;99280.03;5040111;28;20048;-74
2023/12/24 03:48:46;;;;;;;0.30;0.20;;;;;;;-3.90;74.54;99279.16;5039566;28;20045;-75
2023/12/24 03:51:14;;;;;;;0.50;0.20;;;;;;;-3.98;74.83;99269.72;5040379;28;20771;-73
2023/12/24 03:53:41;;;;;;;0.30;0.10;;;;;;;-3.93;74.88;99282.56;5039368;28;20045;-75
2023/12/24 03:56:10;;;;;;;0.30;0.20;;;;;;;-3.96;75.08;99285.06;5043654;28;20478;-74
2023/12/24 03:58:38;;;;;;;0.40;0.20;;;;;;;-3.95;74.34;99286.78;5039328;28;20079;-74
2023/12/24 04:01:08;;;;;;;0.30;0.10;;;;;;;-4.05;74.34;99267.91;5042829;28;20053;-77
2023/12/24 04:03:36;;;;;;;0.80;0.20;;;;;;;-4.00;74.47;99276.50;5049680;28;20047;-77
2023/12/24 04:06:10;;;;;;;0.40;0.20;;;;;;;-4.00;74.30;99281.63;5039402;28;20048;-77
2023/12/24 04:08:37;;;;;;;0.70;0.20;;;;;;;-4.00;74.40;99281.63;5047087;28;20057;-77
2023/12/24 04:11:11;;;;;;;1.05;0.30;;;;;;;-4.02;74.26;99283.28;5044816;28;20507;-78
2023/12/24 04:13:38;;;;;;;0.40;0.20;;;;;;;-4.03;74.68;99284.13;5041067;28;20072;-77
2023/12/24 04:16:05;;;;;;;0.45;0.10;;;;;;;-4.04;74.56;99285.00;5042270;28;20073;-77
2023/12/24 04:18:32;;;;;;;0.52;0.20;;;;;;;-4.06;74.79;99288.34;5036291;28;20475;-77
2023/12/24 04:21:00;;;;;;;0.35;0.10;;;;;;;-4.07;74.54;99287.50;5045002;28;20076;-77
2023/12/24 04:23:27;;;;;;;0.95;0.10;;;;;;;-4.14;74.31;99275.47;5039730;28;20079;-77
2023/12/24 04:25:54;;;;;;;0.98;0.20;;;;;;;-4.11;74.23;99288.28;5048292;28;20495;-77
2023/12/24 04:28:21;;;;;;;0.40;0.10;;;;;;;-4.12;74.53;99290.84;5048659;28;20773;-78
2023/12/24 04:30:48;;;;;;;0.50;0.20;;;;;;;-4.17;74.10;99285.66;5050620;28;20202;-77
2023/12/24 04:33:15;;;;;;;0.20;0.10;;;;;;;-4.17;74.23;99290.78;5048936;28;20474;-77
2023/12/24 04:35:44;;;;;;;0.95;0.20;;;;;;;-4.21;74.08;99289.03;5041941;28;20068;-77
2023/12/24 04:38:13;;;;;;;0.45;0.15;;;;;;;-4.23;74.22;99286.44;5046608;28;20049;-77
2023/12/24 04:40:40;;;;;;;0.40;0.20;;;;;;;-4.26;74.17;99286.41;5044954;28;20044;-78
2023/12/24 04:43:07;;;;;;;0.43;0.20;;;;;;;-4.34;74.26;99279.47;5043908;28;20084;-77
2023/12/24 04:45:34;;;;;;;0.25;0.10;;;;;;;-4.31;74.24;99279.53;5046286;28;20071;-77
2023/12/24 04:48:03;;;;;;;0.50;0.17;;;;;;;-4.32;74.30;99288.03;5047699;28;20487;-77
2023/12/24 04:50:30;;;;;;;1.08;0.20;;;;;;;-4.36;73.56;99281.16;5050691;28;20095;-78
2023/12/24 04:52:57;;;;;;;0.60;0.20;;;;;;;-4.38;74.31;99288.81;5040683;28;20080;-77
2023/12/24 04:55:25;;;;;;;0.50;0.20;;;;;;;-4.41;74.20;99291.31;5046555;28;20068;-77
2023/12/24 04:57:52;;;;;;;0.30;0.10;;;;;;;-4.44;73.93;99286.16;5044074;28;20595;-77
2023/12/24 05:00:19;;;;;;;2.13;0.95;;;;;;;-4.49;73.92;99269.94;5047875;28;20072;-75
2023/12/24 05:02:46;;;;;;;0.32;0.10;;;;;;;-4.59;73.88;99271.47;5039032;28;20069;-75
2023/12/24 05:05:13;;;;;;;0.20;0.10;;;;;;;-4.52;74.10;99283.50;5039558;28;20124;-74
2023/12/24 05:07:40;;;;;;;0.40;0.20;;;;;;;-4.55;73.94;99286.00;5042194;28;20120;-76
2023/12/24 05:10:08;;;;;;;0.65;0.20;;;;;;;-4.57;73.76;99289.38;5041591;28;20069;-74
2023/12/24 05:12:36;;;;;;;0.50;0.15;;;;;;;-4.60;73.99;99290.19;5043365;28;20099;-75
2023/12/24 05:15:03;;;;;;;0.32;0.10;;;;;;;-4.62;73.92;99294.41;5041782;28;20041;-75
2023/12/24 05:17:30;;;;;;;1.45;0.15;;;;;;;-4.65;73.90;99299.47;5040078;28;20114;-74
2023/12/24 05:19:57;;;;;;;0.30;0.20;;;;;;;-4.68;73.70;99307.06;5039466;28;20132;-75
2023/12/24 05:22:24;;;;;;;0.35;0.25;;;;;;;-4.71;73.91;99299.38;5040275;28;20759;-74
2023/12/24 05:24:51;;;;;;;0.40;0.13;;;;;;;-4.74;73.76;99294.22;5043058;28;20636;-74
2023/12/24 05:27:18;;;;;;;0.68;0.15;;;;;;;-4.76;73.61;99295.88;5045537;28;20088;-74
2023/12/24 05:29:46;;;;;;;0.52;0.20;;;;;;;-4.79;73.71;99293.28;5040497;28;20073;-74
2023/12/24 05:32:13;;;;;;;0.65;0.20;;;;;;;-4.81;73.69;99300.94;5046140;28;20072;-73
2023/12/24 05:34:40;;;;;;;0.50;0.10;;;;;;;-4.84;73.63;99308.56;5048271;28;20083;-73
2023/12/24 05:37:07;;;;;;;0.40;0.20;;;;;;;-4.87;73.70;99300.81;5042023;28;20140;-75
2023/12/24 05:39:34;;;;;;;0.35;0.10;;;;;;;-4.90;73.85;99309.31;5043853;28;20077;-75
2023/12/24 05:42:01;;;;;;;0.30;0.20;;;;;;;-4.92;74.08;99308.41;5044266;28;20150;-74
2023/12/24 05:44:28;;;;;;;0.30;0.10;;;;;;;-4.94;73.73;99301.56;5038785;28;20081;-75
2023/12/24 05:46:57;;;;;;;0.20;0.20;;;;;;;-4.96;73.75;99293.88;5045423;28;20082;-74
2023/12/24 05:49:24;;;;;;;0.30;0.10;;;;;;;-5.00;73.74;99289.59;5047484;28;20132;-74
2023/12/24 05:51:51;;;;;;;0.20;0.10;;;;;;;-5.01;73.71;99304.84;5042918;28;20067;-74
2023/12/24 05:54:18;;;;;;;0.63;0.20;;;;;;;-5.04;73.66;99300.56;5043777;28;20120;-74
2023/12/24 05:56:45;;;;;;;0.85;0.20;;;;;;;-5.09;73.68;99294.53;5043789;28;20840;-74
2023/12/24 05:59:12;;;;;;;0.70;0.20;;;;;;;-5.09;73.59;99304.75;5039839;28;20080;-73
2023/12/24 06:01:39;;;;;;;0.50;0.17;;;;;;;-5.11;73.85;99303.84;5045560;28;20080;-75
2023/12/24 06:04:07;;;;;;;0.45;0.10;;;;;;;-5.13;73.32;99300.41;5041978;28;20464;-74
2023/12/24 06:06:34;;;;;;;1.38;0.20;;;;;;;-5.16;73.28;99315.66;5043286;28;20068;-74
2023/12/24 06:09:01;;;;;;;0.30;0.10;;;;;;;-5.19;73.45;99318.16;5044822;28;20120;-74
2023/12/24 06:11:29;;;;;;;0.63;0.10;;;;;;;-5.21;73.55;99317.25;5042835;28;20106;-75
2023/12/24 06:13:55;;;;;;;0.55;0.20;;;;;;;-5.23;73.51;99324.91;5043675;28;20667;-75
2023/12/24 06:16:22;;;;;;;0.75;0.30;;;;;;;-5.26;73.56;99319.75;5040276;28;20076;-76
2023/12/24 06:18:49;;;;;;;1.95;0.20;;;;;;;-5.26;73.44;99324.00;5043495;28;20516;-75
2023/12/24 06:21:18;;;;;;;1.17;0.10;;;;;;;-5.28;73.32;99325.66;5044978;28;20072;-75
2023/12/24 06:23:44;;;;;;;0.65;0.30;;;;;;;-5.31;73.47;99321.34;5039948;28;20563;-75
2023/12/24 06:26:11;;;;;;;0.20;0.17;;;;;;;-5.33;73.61;99323.84;5038821;28;20075;-74
2023/12/24 06:28:38;;;;;;;0.40;0.20;;;;;;;-5.36;73.74;99311.06;5044082;28;20476;-75
2023/12/24 06:31:05;;;;;;;0.30;0.13;;;;;;;-5.38;73.61;99314.44;5043958;28;20079;-75
2023/12/24 06:33:32;;;;;;;0.73;0.20;;;;;;;-5.40;73.59;99311.84;5044134;28;20459;-75
2023/12/24 06:35:59;;;;;;;0.30;0.13;;;;;;;-5.43;73.64;99314.34;5040638;28;20156;-75
2023/12/24 06:38:28;;;;;;;0.30;0.20;;;;;;;-5.45;73.49;99307.50;5042636;28;20158;-75
2023/12/24 06:40:54;;;;;;;1.20;0.10;;;;;;;-5.46;73.72;99313.44;5034922;28;20129;-74
2023/12/24 06:43:21;;;;;;;0.85;0.20;;;;;;;-5.49;73.65;99314.25;5039657;28;20080;-74
2023/12/24 06:45:48;;;;;;;0.60;0.10;;;;;;;-5.51;73.47;99303.16;5042440;28;20088;-75
2023/12/24 06:48:15;;;;;;;0.40;0.10;;;;;;;-5.52;73.84;99306.53;5040294;28;20049;-73
2023/12/24 06:50:43;;;;;;;0.68;0.10;;;;;;;-5.55;73.61;99316.69;5039506;28;20076;-75
2023/12/24 06:53:10;;;;;;;0.75;0.20;;;;;;;-5.58;73.66;99316.63;5034699;28;20079;-76
2023/12/24 06:55:39;;;;;;;0.35;0.20;;;;;;;-5.59;73.70;99313.19;5038450;28;20072;-74
2023/12/24 06:58:06;;;;;;;0.43;0.20;;;;;;;-5.62;73.66;99317.38;5038419;28;20041;-74
2023/12/24 07:00:33;;;;;;;0.82;0.25;;;;;;;-5.63;73.44;99313.97;5039738;28;20045;-74
2023/12/24 07:03:00;;;;;;;0.57;0.20;;;;;;;-5.64;73.81;99319.03;5037298;28;20072;-74
2023/12/24 07:05:34;;;;;;;0.52;0.10;;;;;;;-5.67;73.61;99314.72;5026826;28;20630;-75
2023/12/24 07:08:00;;;;;;;0.85;0.40;;;;;;;-5.67;73.78;99321.53;5042603;28;20052;-73
2023/12/24 07:10:28;;;;;;;1.02;0.20;;;;;;;-5.70;73.42;99316.38;5040879;28;20160;-74
2023/12/24 07:12:56;;;;;;;0.30;0.20;;;;;;;-5.71;73.69;99324.84;5039711;28;20064;-74
2023/12/24 07:15:23;;;;;;;0.82;0.25;;;;;;;-5.74;73.61;99320.56;5041159;28;20053;-74
2023/12/24 07:17:50;;;;;;;0.73;0.20;;;;;;;-5.76;73.76;99328.16;5042963;28;20610;-74
2023/12/24 07:20:17;;;;;;;0.38;0.20;;;;;;;-5.77;73.58;99325.59;5040934;28;20124;-74
2023/12/24 07:22:45;;;;;;;0.32;0.20;;;;;;;-5.79;73.70;99328.09;5042793;28;20048;-74
2023/12/24 07:25:12;;;;;;;0.80;0.30;;;;;;;-5.80;73.74;99320.44;5034801;28;20049;-75
2023/12/24 07:27:38;;;;;;;0.30;0.10;;;;;;;-5.83;73.63;99333.13;5040311;28;20132;-74
2023/12/24 07:30:09;;;;;;;0.80;0.30;;;;;;;-5.85;73.79;99330.53;5041904;28;20123;-76
2023/12/24 07:32:35;;;;;;;0.50;0.30;;;;;;;-5.86;73.83;99328.81;5041716;28;20056;-76
2023/12/24 07:35:03;;;;;;;1.20;0.20;;;;;;;-5.87;73.58;99323.69;5042121;28;20077;-76
2023/12/24 07:37:30;;;;;;;0.43;0.30;;;;;;;-5.89;73.89;99328.75;5043922;28;20048;-76
2023/12/24 07:39:56;;;;;;;1.10;0.22;;;;;;;-5.91;73.52;99322.75;5044338;28;20478;-76
2023/12/24 07:42:23;;;;;;;0.68;0.30;;;;;;;-5.93;73.98;99319.31;5041538;28;20098;-76
2023/12/24 07:44:51;;;;;;;0.35;0.20;;;;;;;-5.94;73.67;99327.81;5044988;28;20511;-76
2023/12/24 07:47:19;;;;;;;2.08;0.30;;;;;;;-5.96;73.50;99329.44;5036972;28;20049;-77
2023/12/24 07:49:46;;;;;;;0.60;0.30;;;;;;;-5.98;74.01;99336.19;5032638;28;20076;-75
2023/12/24 07:52:13;;;;;;;1.58;0.20;;;;;;;-5.99;73.56;99337.03;5040615;28;20562;-76
2023/12/24 07:54:40;;;;;;;1.58;0.20;;;;;;;-5.99;73.57;99339.56;5042400;28;20487;-75
2023/12/24 07:57:07;;;;;;;0.50;0.30;;;;;;;-6.00;73.55;99335.31;5041485;28;20070;-76
2023/12/24 07:59:34;;;;;;;1.50;0.40;;;;;;;-6.02;73.86;99339.50;5043581;28;20128;-76
2023/12/24 08:02:01;;;;;;;1.70;0.30;;;;;;;-6.02;73.95;99350.56;5043110;28;20083;-76
2023/12/24 08:04:29;;;;;;;0.60;0.30;;;;;;;-6.02;73.94;99342.06;5039605;28;20149;-76
2023/12/24 08:06:56;;;;;;;1.23;0.60;;;;;;;-6.03;74.05;99337.81;5045702;28;20161;-76
2023/12/24 08:09:23;;;;;;;2.20;0.70;;;;;;;-6.04;73.67;99342.03;5043944;28;20076;-76
2023/12/24 08:11:50;;;;;;;0.73;0.28;;;;;;;-6.07;74.03;99341.09;5046487;28;20124;-75
2023/12/24 08:14:17;;;;;;;0.52;0.35;;;;;;;-6.07;73.82;99346.19;5039694;28;20627;-74
2023/12/24 08:16:44;;;;;;;0.60;0.30;;;;;;;-6.05;73.72;99349.63;5043592;28;20069;-75
2023/12/24 08:19:11;;;;;;;1.02;0.30;;;;;;;-6.06;74.13;99347.94;5042099;28;20089;-74
2023/12/24 08:21:39;;;;;;;0.52;0.22;;;;;;;-6.07;74.13;99336.84;5038222;28;20077;-74
2023/12/24 08:24:08;;;;;;;1.20;0.40;;;;;;;-6.07;73.98;99336.00;5038917;28;20084;-75
2023/12/24 08:26:35;;;;;;;4.32;0.40;;;;;;;-6.07;73.88;99331.75;5039095;28;20045;-75
2023/12/24 08:29:03;;;;;;;1.20;0.40;;;;;;;-6.07;73.89;99341.94;5037148;28;20143;-74
2023/12/24 08:31:30;;;;;;;0.77;0.28;;;;;;;-6.08;73.79;99345.34;5036139;28;20132;-72
2023/12/24 08:33:57;;;;;;;0.60;0.30;;;;;;;-6.07;73.75;99346.19;5036026;28;20714;-71
2023/12/24 08:36:24;;;;;;;1.00;0.20;;;;;;;-6.08;73.97;99345.34;5040418;28;20128;-72
2023/12/24 08:38:52;;;;;;;4.40;0.30;;;;;;;-6.07;74.06;99347.03;5040233;28;20077;-72
2023/12/24 08:41:19;;;;;;;1.67;0.40;;;;;;;-6.07;73.89;99333.47;5042264;28;20111;-73
2023/12/24 08:43:46;;;;;;;0.50;0.20;;;;;;;-6.09;74.00;99332.59;5033979;28;20125;-74
2023/12/24 08:46:13;;;;;;;0.82;0.30;;;;;;;-6.07;74.03;99330.91;5038317;28;20149;-74
2023/12/24 08:48:40;;;;;;;1.35;0.38;;;;;;;-6.06;74.05;99332.66;5038319;28;20072;-75
2023/12/24 08:51:07;;;;;;;0.80;0.30;;;;;;;-6.07;73.97;99324.13;4981082;28;20136;-74
2023/12/24 08:53:34;;;;;;;1.73;0.30;;;;;;;-6.09;73.79;99323.25;5019591;28;20069;-75
2023/12/24 08:56:02;;;;;;;2.03;0.30;;;;;;;-6.07;74.03;99316.50;5015018;28;20073;-75
2023/12/24 08:58:29;;;;;;;1.35;0.40;;;;;;;-6.07;73.74;99326.66;5018632;28;20133;-78
2023/12/24 09:00:56;;;;;;;1.02;0.38;;;;;;;-6.05;73.67;99326.72;5019235;28;20077;-76
2023/12/24 09:03:23;;;;;;;1.10;0.45;;;;;;;-6.06;74.00;99322.47;5020083;28;20084;-76
2023/12/24 09:05:50;;;;;;;0.95;0.40;;;;;;;-6.06;73.77;99322.47;5022436;28;20482;-76
2023/12/24 09:08:17;;;;;;;2.42;0.57;;;;;;;-6.06;73.64;99317.38;5024037;28;20085;-77
2023/12/24 09:10:44;;;;;;;3.45;0.45;;;;;;;-6.05;73.61;99319.09;5019176;28;20080;-76
2023/12/24 09:13:12;;;;;;;1.95;0.47;;;;;;;-6.06;73.57;99313.13;5024266;28;20056;-77
2023/12/24 09:15:39;;;;;;;1.30;0.50;;;;;;;-6.05;73.92;99314.00;5021761;28;20081;-77
2023/12/24 09:18:06;;;;;;;1.08;0.40;;;;;;;-6.06;73.58;99318.22;5023892;28;20076;-75
2023/12/24 09:20:33;;;;;;;0.93;0.30;;;;;;;-6.05;73.91;99319.09;5024279;28;20566;-75
2023/12/24 09:23:00;;;;;;;2.63;0.50;;;;;;;-6.06;73.78;99318.22;5019317;28;20078;-75
2023/12/24 09:25:27;;;;;;;1.08;0.40;;;;;;;-6.06;73.96;99312.28;5024970;28;20092;-75
2023/12/24 09:27:54;;;;;;;1.23;0.30;;;;;;;-6.05;73.67;99312.28;5023158;28;20082;-75
2023/12/24 09:30:24;;;;;;;0.60;0.30;;;;;;;-6.05;73.90;99314.84;5018518;28;20103;-75
2023/12/24 09:32:51;;;;;;;1.55;0.50;;;;;;;-6.04;74.00;99315.69;5024057;28;20038;-75
2023/12/24 09:35:18;;;;;;;1.23;0.40;;;;;;;-6.03;74.12;99314.88;5026656;28;20073;-75
2023/12/24 09:37:44;;;;;;;2.88;0.30;;;;;;;-6.04;73.84;99314.03;5023907;28;20045;-76
2023/12/24 09:40:12;;;;;;;0.70;0.30;;;;;;;-6.03;73.90;99317.44;5025195;28;20081;-73
2023/12/24 09:42:39;;;;;;;2.38;0.40;;;;;;;-6.03;73.83;99313.19;5021937;28;20105;-74
2023/12/24 09:45:07;;;;;;;0.80;0.40;;;;;;;-6.03;73.85;99312.34;5022777;28;20077;-74
2023/12/24 09:47:35;;;;;;;1.90;0.47;;;;;;;-6.03;74.03;99310.66;5019816;28;20124;-73
2023/12/24 09:50:02;;;;;;;1.65;0.40;;;;;;;-6.03;73.89;99318.28;5021276;28;20138;-72
2023/12/24 09:52:30;;;;;;;0.93;0.30;;;;;;;-6.01;73.85;99305.56;5025420;28;20037;-72
2023/12/24 09:54:57;;;;;;;2.33;0.75;;;;;;;-6.01;73.80;99303.03;5020380;28;20084;-72
2023/12/24 09:57:24;;;;;;;2.95;0.90;;;;;;;-6.00;73.69;99292.88;5019546;28;20125;-72
2023/12/24 09:59:51;;;;;;;2.90;0.60;;;;;;;-6.00;73.62;99292.88;5020951;28;20125;-72
2023/12/24 10:02:17;;;;;;;1.90;0.73;;;;;;;-5.99;73.91;99296.28;5020765;28;20124;-72
2023/12/24 10:04:46;;;;;;;1.23;0.45;;;;;;;-5.98;74.02;99298.00;5019985;28;20239;-72
2023/12/24 10:07:13;;;;;;;1.20;0.60;;;;;;;-5.97;73.77;99294.63;5021239;28;20140;-72
2023/12/24 10:09:45;;;;;;;1.42;0.43;;;;;;;-5.98;73.95;99296.34;5020648;28;20149;-72
2023/12/24 10:12:12;;;;;;;1.25;0.50;;;;;;;-5.95;73.87;99292.09;5020550;28;20503;-72
2023/12/24 10:14:41;;;;;;;0.80;0.40;;;;;;;-5.95;73.99;99290.44;5023701;28;20140;-72
2023/12/24 10:17:08;;;;;;;2.42;0.60;;;;;;;-5.96;73.66;99288.69;5017252;28;20542;-73
2023/12/24 10:19:35;;;;;;;1.42;0.40;;;;;;;-5.95;73.79;99281.91;5020080;28;20120;-74
2023/12/24 10:22:05;;;;;;;1.67;0.57;;;;;;;-5.93;73.71;99277.72;5019895;28;20052;-73
2023/12/24 10:24:34;;;;;;;2.30;0.47;;;;;;;-5.94;73.75;99276.88;5022758;28;20053;-73
2023/12/24 10:27:06;;;;;;;1.40;0.60;;;;;;;-5.93;73.63;99278.56;5019651;28;20184;-74
2023/12/24 10:29:33;;;;;;;1.75;0.55;;;;;;;-5.94;73.93;99271.78;5022430;28;20503;-74
2023/12/24 10:32:00;;;;;;;1.13;0.40;;;;;;;-5.91;73.95;99276.06;5021162;28;20045;-73
2023/12/24 10:34:27;;;;;;;3.72;0.63;;;;;;;-5.89;73.86;99280.38;5018259;28;20724;-73
2023/12/24 10:36:55;;;;;;;1.20;0.35;;;;;;;-5.91;73.87;99270.97;5018905;28;20073;-72
2023/12/24 10:39:26;;;;;;;1.48;0.40;;;;;;;-5.87;73.96;99270.19;5021157;28;20496;-72
2023/12/24 10:41:54;;;;;;;1.35;0.50;;;;;;;-5.87;73.85;99271.03;5022233;28;20077;-72
2023/12/24 10:44:22;;;;;;;2.20;0.43;;;;;;;-5.85;73.87;99268.53;5020062;28;20069;-72
2023/12/24 10:46:49;;;;;;;1.92;0.50;;;;;;;-5.85;73.85;99261.75;5019656;28;20046;-72
2023/12/24 10:49:16;;;;;;;1.45;0.47;;;;;;;-5.82;73.58;99269.44;5020861;28;20567;-72
2023/12/24 10:51:43;;;;;;;1.48;0.55;;;;;;;-5.83;73.61;99272.84;5016915;28;20103;-75
2023/12/24 10:54:11;;;;;;;3.33;0.55;;;;;;;-5.82;74.29;99261.81;5021306;28;20145;-74
2023/12/24 10:56:48;;;;;;;1.25;0.40;;;;;;;-5.81;73.90;99266.09;5024537;28;20084;-74
2023/12/24 10:59:24;;;;;;;1.30;0.40;;;;;;;-5.79;73.76;99266.09;5020987;28;20149;-74
2023/12/24 11:01:51;;;;;;;0.85;0.30;;;;;;;-5.80;73.77;99260.16;5019648;28;20140;-76
2023/12/24 11:04:44;;;;;;;1.42;0.35;;;;;;;-5.79;73.86;99254.22;5021141;28;20124;-75
2023/12/24 11:07:31;;;;;;;1.35;0.70;;;;;;;-5.78;73.89;99255.06;5019875;28;20476;-75
2023/12/24 11:09:58;;;;;;;1.50;0.52;;;;;;;-5.79;73.75;99246.59;5018340;28;20144;-76
2023/12/24 11:12:32;;;;;;;1.17;0.43;;;;;;;-5.79;73.74;99238.94;5019780;28;21339;-76
2023/12/24 11:15:00;;;;;;;2.08;0.50;;;;;;;-5.77;73.60;99244.09;5020024;28;20191;-76
2023/12/24 11:17:49;;;;;;;1.98;0.65;;;;;;;-5.77;73.81;99233.88;5020266;28;20135;-76
2023/12/24 11:20:46;;;;;;;2.20;0.40;;;;;;;-5.76;73.86;99238.13;5020839;28;20084;-76
2023/12/24 11:23:15;;;;;;;1.50;0.50;;;;;;;-5.77;73.71;99233.88;4943407;28;20166;-75
2023/12/24 11:25:44;;;;;;;2.70;0.50;;;;;;;-5.76;73.70;99235.59;5004174;28;20081;-75
2023/12/24 11:28:13;;;;;;;0.73;0.40;;;;;;;-5.76;73.65;99228.81;5017330;28;20132;-76
2023/12/24 11:31:01;;;;;;;1.08;0.43;;;;;;;-5.75;73.87;99233.09;5021254;28;20088;-75
2023/12/24 11:33:47;;;;;;;1.52;0.50;;;;;;;-5.77;73.98;99234.75;5023053;28;20050;-75
2023/12/24 11:36:16;;;;;;;1.75;0.60;;;;;;;-5.76;73.94;99236.44;5019246;28;20567;-76
2023/12/24 11:38:45;;;;;;;0.85;0.30;;;;;;;-5.77;73.88;99229.66;5019059;28;20137;-75